CDT,Max TemperatureF,Mean TemperatureF,Min TemperatureF,Max Dew PointF,MeanDew PointF,Min DewpointF,Max Humidity, Mean Humidity, Min Humidity, Max Sea Level PressureIn, Mean Sea Level PressureIn, Min Sea Level PressureIn, Max VisibilityMiles, Mean VisibilityMiles, Min VisibilityMiles, Max Wind SpeedMPH, Mean Wind SpeedMPH, Max Gust SpeedMPH,PrecipitationIn, CloudCover, Events, WindDirDegrees
2013-9-1,86,70,57,71,63,55,100,85,57,29.83,29.79,29.72,10,5,0,14,3,22,0.04,3,Fog-Rain-Thunderstorm,284
2013-9-2,75,67,57,63,58,51,90,74,50,30.00,29.93,29.81,10,10,10,10,6,18,0.00,4,,339
2013-9-3,77,64,50,53,51,48,96,70,43,30.10,30.05,30.01,10,10,10,7,5,,0.00,0,,284
2013-9-4,82,67,52,65,58,50,97,75,45,30.13,30.10,30.05,10,10,7,13,5,,0.01,1,,274
2013-9-5,71,61,48,63,51,43,94,65,38,30.30,30.24,30.15,10,10,10,16,8,21,0.00,2,,55
2013-9-6,86,65,46,65,56,44,93,69,47,30.25,30.14,30.01,10,10,8,10,3,17,0.00,1,,203
2013-9-7,88,75,64,70,64,60,94,76,41,30.01,29.95,29.90,10,7,2,16,7,25,0.35,2,Rain-Thunderstorm,204
2013-9-8,73,70,66,68,65,63,90,82,73,30.07,30.02,29.98,10,8,5,17,12,23,0.00,7,,65
2013-9-9,91,79,68,74,69,64,90,74,57,29.99,29.88,29.80,9,5,2,14,7,20,0.00,1,,170
2013-9-10,96,86,75,68,64,58,69,50,30,29.97,29.93,29.84,10,9,8,22,13,31,0.00,0,,238
2013-9-11,84,76,68,69,66,64,87,73,51,30.07,30.00,29.95,10,9,4,13,8,,0.03,2,Rain,264
2013-9-12,80,68,57,64,59,50,100,82,47,30.11,30.00,29.95,10,7,0,15,5,26,0.03,2,Fog-Rain-Tornado,313
2013-9-13,64,54,45,46,43,41,90,66,45,30.21,30.17,30.12,10,10,10,14,9,21,0.00,1,,9
2013-9-14,72,55,39,48,42,37,100,72,38,30.19,30.13,30.04,10,8,1,12,3,20,0.00,0,,246
2013-9-15,61,56,53,57,53,43,94,87,55,30.21,30.07,30.01,10,5,1,16,5,21,0.61,7,Rain,198
2013-9-16,64,54,45,54,46,41,90,74,54,30.39,30.34,30.22,10,10,10,14,9,20,0.00,3,,15
2013-9-17,68,56,44,56,49,42,93,77,55,30.36,30.28,30.13,10,9,2,12,4,20,0.01,2,Rain,138
2013-9-18,81,70,61,65,59,51,84,69,54,30.12,30.02,29.92,10,9,6,13,8,20,0.00,3,,179
2013-9-19,80,74,69,70,67,64,90,83,71,29.96,29.89,29.77,10,5,1,21,10,29,0.26,3,Rain-Thunderstorm,184
2013-9-20,75,66,55,66,60,52,90,78,59,29.82,29.79,29.73,10,10,5,16,11,24,0.00,3,Rain,255
2013-9-21,63,54,46,52,47,42,93,75,52,29.97,29.89,29.81,10,10,8,13,6,22,0.00,3,,309
2013-9-22,64,52,42,47,43,41,100,75,52,30.09,30.04,29.96,10,9,2,13,5,,0.01,1,,15
2013-9-23,63,50,39,50,44,37,97,80,58,30.15,30.10,30.06,10,9,2,12,2,17,0.00,2,,103
2013-9-24,69,56,44,54,49,45,100,77,51,30.09,30.04,29.97,10,9,1,10,6,,0.00,0,,101
2013-9-25,68,56,44,56,47,44,100,86,50,30.02,29.98,29.96,10,4,0,16,4,17,0.01,0,Fog,31
2013-9-26,73,57,42,58,47,42,100,86,36,30.11,30.06,29.99,10,4,0,12,3,,0.01,0,Fog,40
2013-9-27,77,60,44,56,48,43,100,84,46,30.19,30.13,30.09,10,5,0,13,2,,0.00,0,Fog,132
2013-9-28,84,70,59,65,58,54,94,69,38,30.09,29.98,29.88,10,8,1,17,11,26,0.11,3,Rain,188
2013-9-29,69,57,46,59,49,44,97,81,42,30.07,30.02,29.94,10,7,0,15,6,23,0.16,1,Fog-Rain,328
2013-9-30,73,57,41,55,45,39,100,83,39,30.02,29.98,29.86,10,5,0,13,2,,0.01,0,Fog,194